sensor_id;sensor_type;location;lat;lon;timestamp;pressure;altitude;pressure_sealevel;temperature;humidity
19457;BME280;9867;48.094;11.478;2023-06-24T00:00:07;96111.97;;;17.53;100.00
19457;BME280;9867;48.094;11.478;2023-06-24T00:02:36;96108.66;;;17.70;100.00
19457;BME280;9867;48.094;11.478;2023-06-24T00:05:05;96112.66;;;17.85;100.00
19457;BME280;9867;48.094;11.478;2023-06-24T00:07:35;96110.22;;;17.90;100.00
19457;BME280;9867;48.094;11.478;2023-06-24T00:10:11;96105.59;;;17.92;100.00
19457;BME280;9867;48.094;11.478;2023-06-24T00:12:40;96106.84;;;17.89;100.00
19457;BME280;9867;48.094;11.478;2023-06-24T00:15:10;96118.44;;;17.87;100.00
19457;BME280;9867;48.094;11.478;2023-06-24T00:17:38;96112.16;;;17.94;100.00
19457;BME280;9867;48.094;11.478;2023-06-24T00:20:07;96096.91;;;17.98;100.00
19457;BME280;9867;48.094;11.478;2023-06-24T00:22:37;96110.38;;;17.95;100.00
19457;BME280;9867;48.094;11.478;2023-06-24T00:25:11;96103.66;;;17.69;100.00
19457;BME280;9867;48.094;11.478;2023-06-24T00:27:40;96101.91;;;17.81;100.00
19457;BME280;9867;48.094;11.478;2023-06-24T00:30:10;96101.41;;;17.91;100.00
19457;BME280;9867;48.094;11.478;2023-06-24T00:32:38;96100.97;;;17.76;100.00
19457;BME280;9867;48.094;11.478;2023-06-24T00:35:07;96093.38;;;17.56;100.00
19457;BME280;9867;48.094;11.478;2023-06-24T00:37:35;96106.47;;;17.67;100.00
19457;BME280;9867;48.094;11.478;2023-06-24T00:40:04;96102.50;;;17.65;100.00
19457;BME280;9867;48.094;11.478;2023-06-24T00:42:32;96103.75;;;17.56;100.00
19457;BME280;9867;48.094;11.478;2023-06-24T00:45:00;96094.03;;;17.51;100.00
19457;BME280;9867;48.094;11.478;2023-06-24T00:47:32;96090.22;;;17.54;100.00
19457;BME280;9867;48.094;11.478;2023-06-24T00:50:02;96085.03;;;17.54;100.00
19457;BME280;9867;48.094;11.478;2023-06-24T00:52:30;96080.13;;;17.64;100.00
19457;BME280;9867;48.094;11.478;2023-06-24T00:54:59;96077.94;;;17.67;100.00
19457;BME280;9867;48.094;11.478;2023-06-24T00:57:29;96080.97;;;17.64;100.00
19457;BME280;9867;48.094;11.478;2023-06-24T00:59:59;96079.78;;;17.79;100.00
19457;BME280;9867;48.094;11.478;2023-06-24T01:02:29;96081.31;;;17.68;100.00
19457;BME280;9867;48.094;11.478;2023-06-24T01:05:00;96077.97;;;17.61;100.00
19457;BME280;9867;48.094;11.478;2023-06-24T01:07:29;96081.00;;;17.76;100.00
19457;BME280;9867;48.094;11.478;2023-06-24T01:09:57;96064.19;;;17.79;100.00
19457;BME280;9867;48.094;11.478;2023-06-24T01:12:25;96081.72;;;17.47;100.00
19457;BME280;9867;48.094;11.478;2023-06-24T01:14:53;96075.97;;;17.45;100.00
19457;BME280;9867;48.094;11.478;2023-06-24T01:17:24;96066.22;;;17.40;100.00
19457;BME280;9867;48.094;11.478;2023-06-24T01:20:03;96074.78;;;17.59;100.00
19457;BME280;9867;48.094;11.478;2023-06-24T01:23:10;96061.03;;;17.58;100.00
19457;BME280;9867;48.094;11.478;2023-06-24T01:25:48;96062.41;;;17.61;100.00
19457;BME280;9867;48.094;11.478;2023-06-24T01:28:37;96068.78;;;17.65;100.00
19457;BME280;9867;48.094;11.478;2023-06-24T01:31:30;96055.69;;;17.53;100.00
19457;BME280;9867;48.094;11.478;2023-06-24T01:34:06;96056.63;;;17.41;100.00
19457;BME280;9867;48.094;11.478;2023-06-24T01:36:37;96065.69;;;17.50;100.00
19457;BME280;9867;48.094;11.478;2023-06-24T01:39:08;96049.97;;;17.26;100.00
19457;BME280;9867;48.094;11.478;2023-06-24T01:41:40;96053.41;;;17.02;100.00
19457;BME280;9867;48.094;11.478;2023-06-24T01:44:13;96039.81;;;17.07;100.00
19457;BME280;9867;48.094;11.478;2023-06-24T01:46:48;96052.72;;;17.13;100.00
19457;BME280;9867;48.094;11.478;2023-06-24T01:49:21;96058.28;;;17.17;100.00
19457;BME280;9867;48.094;11.478;2023-06-24T01:51:50;96051.78;;;17.08;100.00
19457;BME280;9867;48.094;11.478;2023-06-24T01:54:20;96067.03;;;16.97;100.00
19457;BME280;9867;48.094;11.478;2023-06-24T01:56:52;96056.69;;;16.73;100.00
19457;BME280;9867;48.094;11.478;2023-06-24T01:59:22;96052.75;;;16.63;100.00
19457;BME280;9867;48.094;11.478;2023-06-24T02:01:54;96048.69;;;16.74;100.00
19457;BME280;9867;48.094;11.478;2023-06-24T02:04:26;96048.06;;;16.47;100.00
19457;BME280;9867;48.094;11.478;2023-06-24T02:07:00;96044.78;;;16.58;100.00
19457;BME280;9867;48.094;11.478;2023-06-24T02:09:29;96049.44;;;16.50;100.00
19457;BME280;9867;48.094;11.478;2023-06-24T02:12:01;96050.38;;;16.55;100.00
19457;BME280;9867;48.094;11.478;2023-06-24T02:14:31;96051.28;;;16.74;100.00
19457;BME280;9867;48.094;11.478;2023-06-24T02:17:03;96053.59;;;16.82;100.00
19457;BME280;9867;48.094;11.478;2023-06-24T02:19:33;96043.03;;;16.84;100.00
19457;BME280;9867;48.094;11.478;2023-06-24T02:22:03;96036.81;;;16.85;100.00
19457;BME280;9867;48.094;11.478;2023-06-24T02:24:37;96043.81;;;16.84;100.00
19457;BME280;9867;48.094;11.478;2023-06-24T02:27:07;96050.31;;;16.93;100.00
19457;BME280;9867;48.094;11.478;2023-06-24T02:29:37;96055.53;;;17.12;100.00
19457;BME280;9867;48.094;11.478;2023-06-24T02:32:08;96053.78;;;17.05;100.00
19457;BME280;9867;48.094;11.478;2023-06-24T02:34:36;96059.50;;;17.14;100.00
19457;BME280;9867;48.094;11.478;2023-06-24T02:37:05;96066.78;;;17.24;100.00
19457;BME280;9867;48.094;11.478;2023-06-24T02:39:34;96053.34;;;17.09;100.00
19457;BME280;9867;48.094;11.478;2023-06-24T02:42:02;96060.41;;;17.01;100.00
19457;BME280;9867;48.094;11.478;2023-06-24T02:44:30;96042.81;;;16.85;100.00
19457;BME280;9867;48.094;11.478;2023-06-24T02:46:59;96059.41;;;16.78;100.00
19457;BME280;9867;48.094;11.478;2023-06-24T02:49:30;96058.28;;;16.74;100.00
19457;BME280;9867;48.094;11.478;2023-06-24T02:51:58;96066.56;;;16.82;100.00
19457;BME280;9867;48.094;11.478;2023-06-24T02:54:29;96066.91;;;16.61;100.00
19457;BME280;9867;48.094;11.478;2023-06-24T02:57:29;96075.88;;;16.58;100.00
19457;BME280;9867;48.094;11.478;2023-06-24T03:00:27;96070.31;;;16.55;100.00
19457;BME280;9867;48.094;11.478;2023-06-24T03:03:23;96072.66;;;16.69;100.00
19457;BME280;9867;48.094;11.478;2023-06-24T03:05:55;96071.78;;;16.51;100.00
19457;BME280;9867;48.094;11.478;2023-06-24T03:08:26;96065.78;;;16.50;100.00
19457;BME280;9867;48.094;11.478;2023-06-24T03:10:56;96075.09;;;16.58;100.00
19457;BME280;9867;48.094;11.478;2023-06-24T03:13:27;96077.09;;;16.56;100.00
19457;BME280;9867;48.094;11.478;2023-06-24T03:16:04;96079.25;;;16.59;100.00
19457;BME280;9867;48.094;11.478;2023-06-24T03:18:42;96088.94;;;16.77;100.00
19457;BME280;9867;48.094;11.478;2023-06-24T03:21:11;96093.59;;;16.93;100.00
19457;BME280;9867;48.094;11.478;2023-06-24T03:23:40;96094.03;;;16.90;100.00
19457;BME280;9867;48.094;11.478;2023-06-24T03:26:10;96094.22;;;16.88;100.00
19457;BME280;9867;48.094;11.478;2023-06-24T03:28:40;96095.84;;;16.83;100.00
19457;BME280;9867;48.094;11.478;2023-06-24T03:31:14;96090.63;;;16.89;100.00
19457;BME280;9867;48.094;11.478;2023-06-24T03:33:43;96102.38;;;16.92;100.00
19457;BME280;9867;48.094;11.478;2023-06-24T03:36:15;96090.25;;;16.86;100.00
19457;BME280;9867;48.094;11.478;2023-06-24T03:38:43;96093.06;;;16.84;100.00
19457;BME280;9867;48.094;11.478;2023-06-24T03:41:11;96094.69;;;17.03;100.00
19457;BME280;9867;48.094;11.478;2023-06-24T03:43:39;96093.47;;;17.06;100.00
19457;BME280;9867;48.094;11.478;2023-06-24T03:46:08;96100.03;;;17.09;100.00
19457;BME280;9867;48.094;11.478;2023-06-24T03:48:36;96105.00;;;17.10;100.00
19457;BME280;9867;48.094;11.478;2023-06-24T03:51:04;96106.81;;;17.10;100.00
19457;BME280;9867;48.094;11.478;2023-06-24T03:53:34;96101.41;;;17.11;100.00
19457;BME280;9867;48.094;11.478;2023-06-24T03:56:02;96101.53;;;17.23;100.00
19457;BME280;9867;48.094;11.478;2023-06-24T03:58:30;96102.47;;;17.47;100.00
19457;BME280;9867;48.094;11.478;2023-06-24T04:00:59;96100.75;;;17.59;100.00
19457;BME280;9867;48.094;11.478;2023-06-24T04:03:28;96102.88;;;17.68;100.00
19457;BME280;9867;48.094;11.478;2023-06-24T04:05:59;96105.28;;;17.45;100.00
19457;BME280;9867;48.094;11.478;2023-06-24T04:08:28;96101.53;;;17.41;100.00
19457;BME280;9867;48.094;11.478;2023-06-24T04:10:58;96105.00;;;17.53;100.00
19457;BME280;9867;48.094;11.478;2023-06-24T04:13:26;96107.72;;;17.40;100.00
19457;BME280;9867;48.094;11.478;2023-06-24T04:15:54;96111.34;;;17.39;100.00
19457;BME280;9867;48.094;11.478;2023-06-24T04:18:22;96108.53;;;17.41;100.00
19457;BME280;9867;48.094;11.478;2023-06-24T04:20:50;96102.13;;;17.43;100.00
19457;BME280;9867;48.094;11.478;2023-06-24T04:23:19;96109.09;;;17.43;100.00
19457;BME280;9867;48.094;11.478;2023-06-24T04:25:47;96106.78;;;17.34;100.00
19457;BME280;9867;48.094;11.478;2023-06-24T04:28:16;96108.69;;;17.46;100.00
19457;BME280;9867;48.094;11.478;2023-06-24T04:30:44;96103.56;;;17.57;100.00
19457;BME280;9867;48.094;11.478;2023-06-24T04:33:12;96110.66;;;17.25;100.00
19457;BME280;9867;48.094;11.478;2023-06-24T04:35:40;96102.66;;;17.27;100.00
19457;BME280;9867;48.094;11.478;2023-06-24T04:38:07;96116.16;;;17.35;100.00
19457;BME280;9867;48.094;11.478;2023-06-24T04:40:35;96110.16;;;17.35;100.00
19457;BME280;9867;48.094;11.478;2023-06-24T04:43:03;96114.28;;;17.43;100.00
19457;BME280;9867;48.094;11.478;2023-06-24T04:45:32;96117.53;;;17.38;100.00
19457;BME280;9867;48.094;11.478;2023-06-24T04:48:02;96126.13;;;17.57;100.00
19457;BME280;9867;48.094;11.478;2023-06-24T04:50:30;96128.56;;;17.52;100.00
19457;BME280;9867;48.094;11.478;2023-06-24T04:52:59;96124.72;;;17.79;100.00
19457;BME280;9867;48.094;11.478;2023-06-24T04:55:28;96122.47;;;17.83;100.00
19457;BME280;9867;48.094;11.478;2023-06-24T04:57:57;96124.78;;;17.91;100.00
19457;BME280;9867;48.094;11.478;2023-06-24T05:00:25;96130.78;;;18.21;100.00
19457;BME280;9867;48.094;11.478;2023-06-24T05:02:55;96135.38;;;18.08;100.00
19457;BME280;9867;48.094;11.478;2023-06-24T05:05:23;96136.91;;;18.27;100.00
19457;BME280;9867;48.094;11.478;2023-06-24T05:07:51;96141.31;;;18.26;100.00
19457;BME280;9867;48.094;11.478;2023-06-24T05:10:19;96136.66;;;18.47;100.00
19457;BME280;9867;48.094;11.478;2023-06-24T05:12:47;96131.09;;;18.61;100.00
19457;BME280;9867;48.094;11.478;2023-06-24T05:15:15;96133.31;;;18.28;100.00
19457;BME280;9867;48.094;11.478;2023-06-24T05:17:43;96132.28;;;18.29;100.00
19457;BME280;9867;48.094;11.478;2023-06-24T05:20:13;96135.41;;;18.37;100.00
19457;BME280;9867;48.094;11.478;2023-06-24T05:22:41;96130.41;;;18.36;100.00
19457;BME280;9867;48.094;11.478;2023-06-24T05:25:09;96127.69;;;18.31;100.00
19457;BME280;9867;48.094;11.478;2023-06-24T05:27:36;96138.69;;;18.45;100.00
19457;BME280;9867;48.094;11.478;2023-06-24T05:30:06;96140.59;;;18.37;100.00
19457;BME280;9867;48.094;11.478;2023-06-24T05:32:34;96140.94;;;18.41;100.00
19457;BME280;9867;48.094;11.478;2023-06-24T05:35:02;96143.00;;;18.51;100.00
19457;BME280;9867;48.094;11.478;2023-06-24T05:37:31;96130.66;;;18.76;100.00
19457;BME280;9867;48.094;11.478;2023-06-24T05:39:59;96133.31;;;18.88;100.00
19457;BME280;9867;48.094;11.478;2023-06-24T05:42:28;96136.16;;;19.10;100.00
19457;BME280;9867;48.094;11.478;2023-06-24T05:44:56;96135.16;;;19.11;100.00
19457;BME280;9867;48.094;11.478;2023-06-24T05:47:23;96142.22;;;18.80;100.00
19457;BME280;9867;48.094;11.478;2023-06-24T05:49:52;96137.94;;;18.86;100.00
19457;BME280;9867;48.094;11.478;2023-06-24T05:52:20;96144.38;;;18.83;100.00
19457;BME280;9867;48.094;11.478;2023-06-24T05:54:49;96148.00;;;18.82;100.00
19457;BME280;9867;48.094;11.478;2023-06-24T05:57:17;96141.22;;;18.93;100.00
19457;BME280;9867;48.094;11.478;2023-06-24T05:59:45;96157.03;;;18.80;100.00
19457;BME280;9867;48.094;11.478;2023-06-24T06:02:13;96163.28;;;19.02;100.00
19457;BME280;9867;48.094;11.478;2023-06-24T06:04:41;96158.19;;;18.95;100.00
19457;BME280;9867;48.094;11.478;2023-06-24T06:07:09;96151.06;;;19.14;100.00
19457;BME280;9867;48.094;11.478;2023-06-24T06:09:37;96160.13;;;19.00;100.00
19457;BME280;9867;48.094;11.478;2023-06-24T06:12:08;96159.09;;;19.01;100.00
19457;BME280;9867;48.094;11.478;2023-06-24T06:14:36;96152.88;;;19.02;100.00
19457;BME280;9867;48.094;11.478;2023-06-24T06:17:04;96165.25;;;19.41;100.00
19457;BME280;9867;48.094;11.478;2023-06-24T06:19:32;96168.56;;;19.60;100.00
19457;BME280;9867;48.094;11.478;2023-06-24T06:22:00;96149.63;;;19.77;100.00
19457;BME280;9867;48.094;11.478;2023-06-24T06:24:28;96161.41;;;19.67;100.00
19457;BME280;9867;48.094;11.478;2023-06-24T06:26:57;96155.97;;;19.81;100.00
19457;BME280;9867;48.094;11.478;2023-06-24T06:29:26;96156.31;;;19.61;100.00
19457;BME280;9867;48.094;11.478;2023-06-24T06:31:54;96166.47;;;19.39;100.00
19457;BME280;9867;48.094;11.478;2023-06-24T06:34:23;96160.38;;;19.45;100.00
19457;BME280;9867;48.094;11.478;2023-06-24T06:36:51;96161.22;;;19.57;100.00
19457;BME280;9867;48.094;11.478;2023-06-24T06:39:19;96154.47;;;19.85;100.00
19457;BME280;9867;48.094;11.478;2023-06-24T06:41:47;96156.28;;;19.84;100.00
19457;BME280;9867;48.094;11.478;2023-06-24T06:44:16;96165.94;;;19.84;100.00
19457;BME280;9867;48.094;11.478;2023-06-24T06:46:45;96149.56;;;20.12;100.00
19457;BME280;9867;48.094;11.478;2023-06-24T06:49:13;96153.69;;;19.96;100.00
19457;BME280;9867;48.094;11.478;2023-06-24T06:51:40;96168.78;;;19.82;100.00
19457;BME280;9867;48.094;11.478;2023-06-24T06:54:08;96150.56;;;20.10;100.00
19457;BME280;9867;48.094;11.478;2023-06-24T06:56:36;96165.28;;;20.28;100.00
19457;BME280;9867;48.094;11.478;2023-06-24T06:59:04;96163.81;;;20.21;100.00
19457;BME280;9867;48.094;11.478;2023-06-24T07:01:32;96159.59;;;20.60;100.00
19457;BME280;9867;48.094;11.478;2023-06-24T07:04:01;96163.44;;;20.40;100.00
19457;BME280;9867;48.094;11.478;2023-06-24T07:06:29;96167.06;;;20.39;100.00
19457;BME280;9867;48.094;11.478;2023-06-24T07:08:59;96153.94;;;20.23;100.00
19457;BME280;9867;48.094;11.478;2023-06-24T07:11:27;96161.06;;;20.39;100.00
19457;BME280;9867;48.094;11.478;2023-06-24T07:13:54;96153.03;;;20.57;100.00
19457;BME280;9867;48.094;11.478;2023-06-24T07:16:22;96159.03;;;20.86;100.00
19457;BME280;9867;48.094;11.478;2023-06-24T07:18:50;96160.69;;;20.92;100.00
19457;BME280;9867;48.094;11.478;2023-06-24T07:21:19;96155.28;;;20.65;100.00
19457;BME280;9867;48.094;11.478;2023-06-24T07:23:47;96159.56;;;20.71;100.00
19457;BME280;9867;48.094;11.478;2023-06-24T07:26:15;96161.53;;;20.81;100.00
19457;BME280;9867;48.094;11.478;2023-06-24T07:28:43;96162.38;;;21.15;100.00
19457;BME280;9867;48.094;11.478;2023-06-24T07:31:22;96160.22;;;21.62;100.00
19457;BME280;9867;48.094;11.478;2023-06-24T07:33:50;96158.75;;;21.88;100.00
19457;BME280;9867;48.094;11.478;2023-06-24T07:36:19;96160.78;;;21.64;98.48
19457;BME280;9867;48.094;11.478;2023-06-24T07:38:47;96148.59;;;21.53;100.00
19457;BME280;9867;48.094;11.478;2023-06-24T07:41:15;96161.53;;;21.82;99.47
19457;BME280;9867;48.094;11.478;2023-06-24T07:43:43;96153.47;;;22.05;100.00
19457;BME280;9867;48.094;11.478;2023-06-24T07:46:11;96157.38;;;22.02;100.00
19457;BME280;9867;48.094;11.478;2023-06-24T07:48:39;96159.06;;;21.75;100.00
19457;BME280;9867;48.094;11.478;2023-06-24T07:51:06;96163.09;;;21.83;100.00
19457;BME280;9867;48.094;11.478;2023-06-24T07:53:36;96154.84;;;21.69;100.00
19457;BME280;9867;48.094;11.478;2023-06-24T07:56:04;96161.44;;;21.38;100.00
19457;BME280;9867;48.094;11.478;2023-06-24T07:58:33;96164.44;;;21.47;100.00
19457;BME280;9867;48.094;11.478;2023-06-24T08:01:01;96160.97;;;21.79;100.00
19457;BME280;9867;48.094;11.478;2023-06-24T08:03:29;96164.75;;;21.89;98.79
19457;BME280;9867;48.094;11.478;2023-06-24T08:05:57;96170.28;;;21.92;100.00
19457;BME280;9867;48.094;11.478;2023-06-24T08:08:25;96166.13;;;21.74;98.32
19457;BME280;9867;48.094;11.478;2023-06-24T08:10:55;96174.75;;;21.75;100.00
19457;BME280;9867;48.094;11.478;2023-06-24T08:13:22;96169.03;;;21.78;100.00
19457;BME280;9867;48.094;11.478;2023-06-24T08:15:50;96167.44;;;21.94;100.00
19457;BME280;9867;48.094;11.478;2023-06-24T08:18:18;96158.44;;;21.85;100.00
19457;BME280;9867;48.094;11.478;2023-06-24T08:20:46;96170.47;;;21.47;100.00
19457;BME280;9867;48.094;11.478;2023-06-24T08:23:14;96171.72;;;21.44;100.00
19457;BME280;9867;48.094;11.478;2023-06-24T08:25:42;96170.84;;;21.39;100.00
19457;BME280;9867;48.094;11.478;2023-06-24T08:28:11;96160.69;;;21.59;100.00
19457;BME280;9867;48.094;11.478;2023-06-24T08:30:42;96161.09;;;21.68;100.00
19457;BME280;9867;48.094;11.478;2023-06-24T08:33:10;96155.16;;;21.56;100.00
19457;BME280;9867;48.094;11.478;2023-06-24T08:35:38;96153.25;;;21.51;100.00
19457;BME280;9867;48.094;11.478;2023-06-24T08:38:06;96155.19;;;21.39;100.00
19457;BME280;9867;48.094;11.478;2023-06-24T08:40:34;96150.31;;;21.26;100.00
19457;BME280;9867;48.094;11.478;2023-06-24T08:43:02;96146.91;;;21.25;100.00
19457;BME280;9867;48.094;11.478;2023-06-24T08:45:31;96151.06;;;21.09;100.00
19457;BME280;9867;48.094;11.478;2023-06-24T08:48:00;96144.91;;;21.32;100.00
19457;BME280;9867;48.094;11.478;2023-06-24T08:50:35;96152.63;;;21.10;100.00
19457;BME280;9867;48.094;11.478;2023-06-24T08:53:07;96160.69;;;20.75;100.00
19457;BME280;9867;48.094;11.478;2023-06-24T08:55:40;96155.47;;;20.75;100.00
19457;BME280;9867;48.094;11.478;2023-06-24T08:58:11;96142.72;;;21.24;100.00
19457;BME280;9867;48.094;11.478;2023-06-24T09:00:40;96154.06;;;21.52;100.00
19457;BME280;9867;48.094;11.478;2023-06-24T09:03:09;96147.47;;;21.66;100.00
19457;BME280;9867;48.094;11.478;2023-06-24T09:05:37;96145.63;;;22.05;100.00
19457;BME280;9867;48.094;11.478;2023-06-24T09:08:06;96141.06;;;21.95;97.78
19457;BME280;9867;48.094;11.478;2023-06-24T09:10:35;96152.75;;;21.49;100.00
19457;BME280;9867;48.094;11.478;2023-06-24T09:13:04;96155.75;;;21.79;100.00
19457;BME280;9867;48.094;11.478;2023-06-24T09:15:33;96156.19;;;21.55;99.58
19457;BME280;9867;48.094;11.478;2023-06-24T09:18:04;96143.59;;;21.52;100.00
19457;BME280;9867;48.094;11.478;2023-06-24T09:20:33;96153.91;;;21.80;97.21
19457;BME280;9867;48.094;11.478;2023-06-24T09:23:06;96153.84;;;21.36;100.00
19457;BME280;9867;48.094;11.478;2023-06-24T09:25:34;96141.41;;;21.10;100.00
19457;BME280;9867;48.094;11.478;2023-06-24T09:28:03;96148.94;;;21.40;100.00
19457;BME280;9867;48.094;11.478;2023-06-24T09:30:31;96154.34;;;21.72;99.33
19457;BME280;9867;48.094;11.478;2023-06-24T09:32:59;96146.22;;;21.68;92.66
19457;BME280;9867;48.094;11.478;2023-06-24T09:35:34;96150.13;;;22.31;92.04
19457;BME280;9867;48.094;11.478;2023-06-24T09:38:03;96145.28;;;22.45;89.03
19457;BME280;9867;48.094;11.478;2023-06-24T09:40:34;96139.97;;;22.62;87.86
19457;BME280;9867;48.094;11.478;2023-06-24T09:43:03;96120.09;;;22.34;83.31
19457;BME280;9867;48.094;11.478;2023-06-24T09:45:35;96135.84;;;22.39;82.61
19457;BME280;9867;48.094;11.478;2023-06-24T09:48:04;96133.16;;;22.61;81.48
19457;BME280;9867;48.094;11.478;2023-06-24T09:50:34;96122.44;;;23.21;79.55
19457;BME280;9867;48.094;11.478;2023-06-24T09:53:03;96122.38;;;24.10;72.46
19457;BME280;9867;48.094;11.478;2023-06-24T09:55:32;96130.41;;;23.78;73.05
19457;BME280;9867;48.094;11.478;2023-06-24T09:58:01;96126.53;;;23.49;75.91
19457;BME280;9867;48.094;11.478;2023-06-24T10:00:30;96128.50;;;22.90;73.13
19457;BME280;9867;48.094;11.478;2023-06-24T10:02:59;96128.06;;;22.76;76.72
19457;BME280;9867;48.094;11.478;2023-06-24T10:05:27;96128.84;;;23.03;75.83
19457;BME280;9867;48.094;11.478;2023-06-24T10:07:57;96125.25;;;23.52;78.75
19457;BME280;9867;48.094;11.478;2023-06-24T10:10:25;96122.59;;;23.94;75.08
19457;BME280;9867;48.094;11.478;2023-06-24T10:12:53;96110.16;;;24.31;73.59
19457;BME280;9867;48.094;11.478;2023-06-24T10:15:22;96117.31;;;24.92;67.79
19457;BME280;9867;48.094;11.478;2023-06-24T10:17:50;96112.09;;;25.17;64.81
19457;BME280;9867;48.094;11.478;2023-06-24T10:20:37;96108.94;;;25.10;67.86
19457;BME280;9867;48.094;11.478;2023-06-24T10:23:10;96103.19;;;25.03;61.60
19457;BME280;9867;48.094;11.478;2023-06-24T10:25:37;96092.94;;;25.01;60.10
19457;BME280;9867;48.094;11.478;2023-06-24T10:28:05;96094.72;;;24.60;63.28
19457;BME280;9867;48.094;11.478;2023-06-24T10:30:35;96089.44;;;24.30;67.63
19457;BME280;9867;48.094;11.478;2023-06-24T10:33:09;96086.31;;;24.33;67.10
19457;BME280;9867;48.094;11.478;2023-06-24T10:35:41;96090.25;;;24.40;65.80
19457;BME280;9867;48.094;11.478;2023-06-24T10:38:12;96094.06;;;24.07;67.43
19457;BME280;9867;48.094;11.478;2023-06-24T10:40:41;96089.94;;;23.64;69.96
19457;BME280;9867;48.094;11.478;2023-06-24T10:43:27;96090.00;;;23.69;72.41
19457;BME280;9867;48.094;11.478;2023-06-24T10:45:57;96088.66;;;23.62;72.19
19457;BME280;9867;48.094;11.478;2023-06-24T10:48:25;96080.47;;;23.53;69.29
19457;BME280;9867;48.094;11.478;2023-06-24T10:50:53;96077.00;;;23.00;72.52
19457;BME280;9867;48.094;11.478;2023-06-24T10:53:22;96078.81;;;23.00;77.46
19457;BME280;9867;48.094;11.478;2023-06-24T10:55:50;96076.63;;;22.87;75.69
19457;BME280;9867;48.094;11.478;2023-06-24T10:58:18;96073.78;;;22.61;73.72
19457;BME280;9867;48.094;11.478;2023-06-24T11:00:46;96065.84;;;22.78;71.82
19457;BME280;9867;48.094;11.478;2023-06-24T11:03:17;96061.00;;;23.44;72.50
19457;BME280;9867;48.094;11.478;2023-06-24T11:05:48;96063.75;;;24.32;69.39
19457;BME280;9867;48.094;11.478;2023-06-24T11:08:16;96054.56;;;25.10;61.28
19457;BME280;9867;48.094;11.478;2023-06-24T11:10:46;96053.78;;;25.20;58.40
19457;BME280;9867;48.094;11.478;2023-06-24T11:13:15;96045.06;;;25.30;54.02
19457;BME280;9867;48.094;11.478;2023-06-24T11:15:43;96050.81;;;25.37;53.58
19457;BME280;9867;48.094;11.478;2023-06-24T11:18:11;96043.47;;;25.39;52.48
19457;BME280;9867;48.094;11.478;2023-06-24T11:20:39;96048.03;;;25.03;63.33
19457;BME280;9867;48.094;11.478;2023-06-24T11:23:08;96033.81;;;24.58;56.33
19457;BME280;9867;48.094;11.478;2023-06-24T11:25:42;96044.34;;;24.68;54.54
19457;BME280;9867;48.094;11.478;2023-06-24T11:28:16;96029.63;;;24.57;54.33
19457;BME280;9867;48.094;11.478;2023-06-24T11:30:48;96025.94;;;24.94;60.73
19457;BME280;9867;48.094;11.478;2023-06-24T11:33:26;96024.91;;;24.79;58.52
19457;BME280;9867;48.094;11.478;2023-06-24T11:35:55;96011.22;;;25.18;53.45
19457;BME280;9867;48.094;11.478;2023-06-24T11:38:23;96004.41;;;24.87;51.16
19457;BME280;9867;48.094;11.478;2023-06-24T11:40:58;96023.84;;;25.91;54.69
19457;BME280;9867;48.094;11.478;2023-06-24T11:43:27;96018.59;;;26.35;53.38
19457;BME280;9867;48.094;11.478;2023-06-24T11:45:55;96010.91;;;26.72;53.90
19457;BME280;9867;48.094;11.478;2023-06-24T11:48:27;96016.72;;;25.91;52.38
19457;BME280;9867;48.094;11.478;2023-06-24T11:50:55;96018.28;;;25.97;55.93
19457;BME280;9867;48.094;11.478;2023-06-24T11:53:29;96003.03;;;25.30;53.02
19457;BME280;9867;48.094;11.478;2023-06-24T11:55:58;96006.50;;;24.90;51.55
19457;BME280;9867;48.094;11.478;2023-06-24T11:58:27;96003.97;;;25.69;53.26
19457;BME280;9867;48.094;11.478;2023-06-24T12:00:56;95998.44;;;26.15;51.80
19457;BME280;9867;48.094;11.478;2023-06-24T12:03:24;95994.47;;;26.57;54.39
19457;BME280;9867;48.094;11.478;2023-06-24T12:05:52;95996.63;;;26.78;49.60
19457;BME280;9867;48.094;11.478;2023-06-24T12:08:20;95993.06;;;26.93;46.60
19457;BME280;9867;48.094;11.478;2023-06-24T12:10:49;95985.44;;;26.34;45.39
19457;BME280;9867;48.094;11.478;2023-06-24T12:13:17;95981.81;;;26.59;47.36
19457;BME280;9867;48.094;11.478;2023-06-24T12:15:46;95983.94;;;26.86;47.77
19457;BME280;9867;48.094;11.478;2023-06-24T12:18:14;95969.28;;;27.03;45.49
19457;BME280;9867;48.094;11.478;2023-06-24T12:20:42;95972.97;;;27.02;46.58
19457;BME280;9867;48.094;11.478;2023-06-24T12:23:10;95981.03;;;27.16;48.11
19457;BME280;9867;48.094;11.478;2023-06-24T12:25:38;95972.59;;;26.85;40.71
19457;BME280;9867;48.094;11.478;2023-06-24T12:28:06;95976.31;;;27.13;39.49
19457;BME280;9867;48.094;11.478;2023-06-24T12:30:37;95960.53;;;26.50;40.90
19457;BME280;9867;48.094;11.478;2023-06-24T12:33:10;95957.28;;;26.34;40.26
19457;BME280;9867;48.094;11.478;2023-06-24T12:35:39;95950.97;;;25.42;44.53
19457;BME280;9867;48.094;11.478;2023-06-24T12:38:07;95947.97;;;24.99;46.77
19457;BME280;9867;48.094;11.478;2023-06-24T12:40:35;95946.25;;;25.39;48.43
19457;BME280;9867;48.094;11.478;2023-06-24T12:43:03;95959.31;;;26.03;47.16
19457;BME280;9867;48.094;11.478;2023-06-24T12:45:31;95951.06;;;26.78;45.57
19457;BME280;9867;48.094;11.478;2023-06-24T12:47:59;95945.13;;;26.96;43.29
19457;BME280;9867;48.094;11.478;2023-06-24T12:50:29;95935.00;;;27.70;44.72
19457;BME280;9867;48.094;11.478;2023-06-24T12:52:58;95942.69;;;28.55;45.77
19457;BME280;9867;48.094;11.478;2023-06-24T12:55:29;95938.31;;;28.64;39.86
19457;BME280;9867;48.094;11.478;2023-06-24T12:57:57;95930.47;;;27.75;41.37
19457;BME280;9867;48.094;11.478;2023-06-24T13:00:26;95939.19;;;27.09;43.22
19457;BME280;9867;48.094;11.478;2023-06-24T13:02:54;95935.97;;;25.97;42.77
19457;BME280;9867;48.094;11.478;2023-06-24T13:05:22;95946.47;;;25.97;45.29